METAR Data
IDs: Format: Raw Decoded Include TAF

Data at: 0605 UTC 24 Sep 2018

KBKE 240553Z AUTO 26005KT 10SM CLR 06/M03 A3009 RMK AO2 SLP190 T00611028 10172 20056 51005
KBKE 240453Z AUTO 26007KT 10SM CLR 07/M03 A3009 RMK AO2 SLP188 T00671028
KBKE 240353Z AUTO 30008KT 10SM CLR 08/M03 A3009 RMK AO2 SLP188 T00831033
KBKE 240253Z AUTO 25004KT 10SM CLR 10/M03 A3008 RMK AO2 SLP184 T01001028 53011
KBKE 240153Z AUTO 34007KT 10SM CLR 12/M03 A3005 RMK AO2 SLP177 T01221033
KBKE 240053Z AUTO 34012KT 10SM CLR 16/M03 A3004 RMK AO2 SLP169 T01561028
KBKE 232353Z AUTO 34016KT 10SM CLR 17/M03 A3004 RMK AO2 SLP165 T01721028 10183 20144 55005
KBKE 232253Z AUTO 34015G21KT 10SM CLR 18/M02 A3003 RMK AO2 SLP160 T01781017
KBKE 232153Z AUTO 34011G23KT 10SM CLR 18/M01 A3004 RMK AO2 SLP163 T01831011
KBKE 232053Z AUTO 33010G19KT 10SM CLR 18/00 A3006 RMK AO2 SLP167 T01780000 56008
KBKE 231953Z AUTO 31010KT 10SM CLR 17/01 A3006 RMK AO2 SLP168 T01720011
KBKE 231853Z AUTO 35007KT 10SM CLR 16/01 A3008 RMK AO2 SLP174 T01610011
KBKE 231753Z AUTO 31009KT 10SM CLR 14/01 A3008 RMK AO2 SLP179 T01390011 10150 20061 51005
KBKE 231653Z AUTO 33007KT 10SM SCT040 14/02 A3008 RMK AO2 SLP176 T01390017
KBKE 231553Z AUTO 28008KT 10SM CLR 12/04 A3007 RMK AO2 SLP178 T01170044
KBKE 231453Z AUTO 23005KT 10SM CLR 09/04 A3007 RMK AO2 SLP177 T00890039 53007
KBKE 231353Z AUTO 23005KT 10SM CLR 06/03 A3006 RMK AO2 SLP177 T00610033
KBKE 231253Z AUTO 24004KT 10SM SCT033 BKN055 07/04 A3005 RMK AO2 SLP171 T00720039
KBKE 231153Z AUTO 26005KT 10SM SCT050 08/04 A3005 RMK AO2 SLP170 60000 T00830044 10128 20083 51008
KBKE 231053Z AUTO 32007KT 10SM OVC036 11/06 A3004 RMK AO2 SLP161 T01060056
KBKE 230953Z AUTO 32005KT 10SM FEW040 SCT050 OVC100 11/06 A3003 RMK AO2 RAE06 SLP157 P0000 T01060061
KBKE 230853Z AUTO 34009KT 10SM -RA BKN045 OVC110 11/06 A3002 RMK AO2 RAB43 SLP151 P0000 60000 T01060061 53003
KBKE 230753Z AUTO 31005KT 10SM BKN041 11/06 A3001 RMK AO2 SLP147 T01110061 402330061
KBKE 230653Z AUTO VRB03KT 10SM CLR 12/07 A3000 RMK AO2 SLP145 T01220072
KBKE 230553Z AUTO VRB04KT 10SM BKN110 12/08 A3001 RMK AO2 RAB22E34 SLP149 P0000 60000 T01220083 10189 20122 50008
KBKE 230453Z AUTO 28005KT 10SM BKN100 13/08 A3001 RMK AO2 SLP153 T01330083
KBKE 230353Z AUTO 27004KT 10SM FEW120 12/08 A2999 RMK AO2 SLP148 T01220083
KBKE 230312Z AUTO 18005KT 10SM FEW002 14/08 A3000 RMK AO2 T01440078
KBKE 230253Z AUTO 04004KT 10SM CLR 14/08 A2998 RMK AO2 SLP149 60000 T01390078 58006
KBKE 230153Z AUTO 23008KT 10SM FEW110 15/07 A2999 RMK AO2 RAE34 SLP152 P0000 T01500072
KBKE 230053Z AUTO 19012G19KT 10SM -RA BKN065 OVC085 16/08 A3003 RMK AO2 RAB53 SLP163 P0000 T01610078
KBKE 222353Z AUTO 27009KT 10SM BKN080 OVC100 15/09 A3000 RMK AO2 RAB07E35 SLP156 P0000 60000 T01500094 10233 20144 53002
KBKE 222253Z AUTO 33015G23KT 10SM OVC090 18/06 A3000 RMK AO2 SLP152 T01780056
KBKE 222153Z AUTO 31012KT 10SM SCT110 19/05 A2999 RMK AO2 SLP148 T01940050
KBKE 222053Z AUTO 32016KT 10SM CLR 20/04 A3000 RMK AO2 SLP147 T02000044 56005
KBKE 221953Z AUTO 31012KT 10SM CLR 21/03 A3000 RMK AO2 SLP145 T02110033
KBKE 221853Z AUTO VRB03KT 10SM CLR 20/02 A3001 RMK AO2 SLP148 T02000017